.
WxDataArchive / Data Records for 2014-11-11
2014-11-10 November 2014 2014-11-12

Data Records for Tuesday, 11 November 2014

Time	Temp	Chill	HIndex	Humid	Dewpt	 Wind 	HiWind	WindDir	Rain 	Barom
-----	----	-----	------	-----	-----	------	------	-------	-----	-----
00:00	48.8	48.8	48.8	52	32.0	0	4	112	0.00	29.688 
00:05	48.8	48.8	48.8	52	32.0	0	1	112	0.00	29.688 
00:10	48.6	48.6	48.6	52	31.8	0	1	112	0.00	29.688 
00:15	48.5	48.5	48.5	52	31.7	0	2	112	0.00	29.685 
00:20	48.3	48.3	48.3	53	32.0	0	1	112	0.00	29.685 
00:25	48.2	48.2	48.2	53	31.9	0	1	112	0.00	29.685 
00:30	48.0	48.0	48.0	53	31.7	0	1	112	0.00	29.687 
00:35	47.9	47.9	47.9	54	32.1	0	1	112	0.00	29.687 
00:40	47.7	47.7	47.7	54	31.9	0	1	112	0.00	29.687 
00:45	47.6	47.6	47.6	54	31.8	0	1	112	0.00	29.687 
00:50	47.6	47.6	47.6	54	31.8	0	1	112	0.00	29.687 
00:55	47.6	47.6	47.6	54	31.8	0	1	112	0.00	29.687 
01:00	47.7	47.7	47.7	55	32.3	0	1	112	0.00	29.687 
01:05	47.7	47.7	47.7	54	31.9	0	1	112	0.00	29.687 
01:10	47.9	47.9	47.9	55	32.5	0	1	112	0.00	29.687 
01:15	47.9	47.9	47.9	55	32.5	0	2	112	0.00	29.686 
01:20	48.0	48.0	48.0	54	32.2	0	2	112	0.00	29.686 
01:25	48.3	48.3	48.3	54	32.4	0	4	248	0.00	29.686 
01:30	48.8	48.8	48.8	54	32.9	1	2	248	0.00	29.685 
01:35	49.1	49.1	49.1	53	32.7	0	4	248	0.00	29.685 
01:40	49.4	49.4	49.4	53	33.0	0	2	270	0.00	29.685 
01:45	49.5	49.5	49.5	53	33.1	1	4	270	0.00	29.679 
01:50	49.8	49.8	49.8	53	33.4	0	2	45	0.00	29.679 
01:55	50.1	50.1	50.1	53	33.6	1	4	270	0.00	29.679 
02:00	50.2	50.2	50.2	53	33.7	1	3	270	0.00	29.681 
02:05	50.2	50.2	50.2	53	33.7	0	1	270	0.00	29.681 
02:10	50.4	50.4	50.4	53	33.9	0	2	270	0.00	29.681 
02:15	50.4	50.4	50.4	53	33.9	0	2	270	0.00	29.681 
02:20	50.2	50.2	50.2	54	34.2	0	1	270	0.00	29.681 
02:25	50.1	50.1	50.1	54	34.1	0	2	270	0.00	29.681 
02:30	50.1	50.1	50.1	55	34.6	0	2	270	0.00	29.682 
02:35	50.1	50.1	50.1	55	34.6	0	1	270	0.00	29.682 
02:40	50.1	50.1	50.1	55	34.6	0	2	270	0.00	29.682 
02:45	50.1	50.1	50.1	55	34.6	0	2	270	0.00	29.683 
02:50	50.1	50.1	50.1	55	34.6	0	2	270	0.00	29.683 
02:55	50.1	50.1	50.1	55	34.6	0	2	270	0.00	29.683 
03:00	50.2	50.2	50.2	55	34.7	0	1	270	0.00	29.684 
03:05	50.2	50.2	50.2	55	34.7	0	2	270	0.00	29.684 
03:10	50.2	50.2	50.2	55	34.7	0	3	270	0.00	29.684 
03:15	50.4	50.4	50.4	56	35.3	0	2	270	0.00	29.684 
03:20	50.2	50.2	50.2	56	35.1	0	1	270	0.00	29.684 
03:25	50.1	50.1	50.1	56	35.0	0	1	270	0.00	29.684 
03:30	49.9	49.9	49.9	57	35.3	0	1	270	0.00	29.685 
03:35	49.8	49.8	49.8	57	35.2	0	1	270	0.00	29.685 
03:40	49.6	49.6	49.6	57	35.0	0	1	270	0.00	29.685 
03:45	49.6	49.6	49.6	58	35.4	0	3	270	0.00	29.685 
03:50	49.5	49.5	49.5	58	35.3	0	1	270	0.00	29.685 
03:55	49.5	49.5	49.5	58	35.3	0	1	270	0.00	29.685 
04:00	49.5	49.5	49.5	58	35.3	0	3	270	0.00	29.684 
04:05	49.5	49.5	49.5	58	35.3	0	1	270	0.00	29.684 
04:10	49.5	49.5	49.5	58	35.3	0	2	270	0.00	29.684 
04:15	49.5	49.5	49.5	58	35.3	0	1	270	0.00	29.683 
04:20	49.6	49.6	49.6	58	35.4	0	1	270	0.00	29.683 
04:25	49.8	49.8	49.8	58	35.6	0	2	270	0.00	29.683 
04:30	49.9	49.9	49.9	58	35.7	0	3	270	0.00	29.681 
04:35	49.9	49.9	49.9	58	35.7	0	2	292	0.00	29.681 
04:40	49.8	49.8	49.8	58	35.6	0	1	292	0.00	29.681 
04:45	49.6	49.6	49.6	58	35.4	0	2	292	0.00	29.676 
04:50	49.6	49.6	49.6	58	35.4	0	1	292	0.00	29.676 
04:55	49.6	49.6	49.6	58	35.4	0	1	292	0.00	29.676 
05:00	49.6	49.6	49.6	58	35.4	0	2	292	0.00	29.684 
05:05	49.5	49.5	49.5	58	35.3	0	3	292	0.00	29.684 
05:10	49.5	49.5	49.5	59	35.8	0	2	292	0.00	29.684 
05:15	49.5	49.5	49.5	59	35.8	0	1	292	0.00	29.688 
05:20	49.5	49.5	49.5	59	35.8	0	2	292	0.00	29.688 
05:25	49.4	49.4	49.4	59	35.7	0	1	292	0.00	29.688 
05:30	49.4	49.4	49.4	60	36.1	0	1	292	0.00	29.687 
05:35	49.2	49.2	49.2	60	35.9	0	1	292	0.00	29.687 
05:40	48.9	48.9	48.9	61	36.0	0	0	---	0.00	29.687 
05:45	48.8	48.8	48.8	61	36.0	0	1	292	0.00	29.687 
05:50	48.8	48.8	48.8	61	36.0	0	1	292	0.00	29.687 
05:55	48.8	48.8	48.8	61	36.0	0	1	292	0.00	29.687 
06:00	48.9	48.9	48.9	61	36.0	0	1	292	0.00	29.682 
06:05	48.9	48.9	48.9	61	36.0	0	1	292	0.00	29.682 
06:10	48.9	48.9	48.9	62	36.5	0	1	292	0.00	29.682 
06:15	48.8	48.8	48.8	62	36.4	0	0	---	0.00	29.685 
06:20	48.6	48.6	48.6	62	36.2	0	1	292	0.00	29.685 
06:25	48.5	48.5	48.5	62	36.1	0	1	292	0.00	29.685 
06:30	48.5	48.5	48.5	63	36.5	0	0	---	0.00	29.686 
06:35	48.3	48.3	48.3	63	36.3	0	1	292	0.00	29.686 
06:40	48.2	48.2	48.2	64	36.6	0	1	292	0.00	29.686 
06:45	48.0	48.0	48.0	64	36.4	0	0	---	0.00	29.685 
06:50	48.0	48.0	48.0	64	36.4	0	2	292	0.00	29.685 
06:55	48.2	48.2	48.2	64	36.6	0	1	292	0.00	29.685 
07:00	48.2	48.2	48.2	64	36.6	0	0	---	0.00	29.688 
07:05	48.3	48.3	48.3	64	36.7	0	1	292	0.00	29.688 
07:10	48.5	48.5	48.5	64	36.9	0	1	292	0.00	29.688 
07:15	48.6	48.6	48.6	64	37.0	0	1	292	0.00	29.692 
07:20	48.6	48.6	48.6	65	37.4	0	1	292	0.00	29.692 
07:25	48.6	48.6	48.6	65	37.4	0	1	292	0.00	29.692 
07:30	48.6	48.6	48.6	65	37.4	0	3	292	0.00	29.692 
07:35	48.6	48.6	48.6	65	37.4	0	0	---	0.00	29.692 
07:40	48.6	48.6	48.6	65	37.4	0	1	292	0.00	29.692 
07:45	48.6	48.6	48.6	65	37.4	0	1	292	0.00	29.693 
07:50	48.5	48.5	48.5	66	37.7	0	1	292	0.00	29.693 
07:55	48.6	48.6	48.6	66	37.8	0	1	292	0.00	29.693 
08:00	48.8	48.8	48.8	66	38.0	0	1	292	0.00	29.694 
08:05	49.2	49.2	49.2	65	37.9	0	1	292	0.00	29.694 
08:10	49.6	49.6	49.6	65	38.3	0	1	292	0.00	29.694 
08:15	50.1	50.1	50.1	65	38.8	0	2	292	0.00	29.697 
08:20	50.5	50.5	50.5	63	38.4	0	2	292	0.00	29.697 
08:25	51.0	51.0	51.0	63	38.9	0	2	292	0.00	29.697 
08:30	51.4	51.4	51.4	62	38.8	1	2	292	0.00	29.694 
08:35	51.9	51.9	51.9	61	38.9	0	3	292	0.00	29.694 
08:40	52.3	52.3	52.3	61	39.3	0	2	292	0.00	29.694 
08:45	52.9	52.9	52.9	60	39.4	1	4	90	0.00	29.696 
08:50	53.3	53.3	53.3	59	39.3	1	3	90	0.00	29.696 
08:55	53.8	53.8	53.8	58	39.4	1	7	248	0.00	29.696 
09:00	53.8	53.8	53.8	58	39.4	1	6	248	0.00	29.697 
09:05	53.8	53.8	53.8	58	39.4	1	4	248	0.00	29.697 
09:10	53.6	53.6	53.6	58	39.2	0	4	292	0.00	29.697 
09:15	53.6	53.6	53.6	59	39.6	1	3	248	0.00	29.695 
09:20	53.9	53.9	53.9	59	39.9	1	6	248	0.00	29.695 
09:25	54.1	54.1	54.1	59	40.1	0	2	248	0.00	29.695 
09:30	54.4	54.4	54.4	59	40.4	0	4	248	0.00	29.691 
09:35	54.5	54.5	54.5	58	40.0	1	3	270	0.00	29.691 
09:40	54.8	54.8	54.8	59	40.7	1	5	68	0.00	29.691 
09:45	55.3	55.3	55.3	59	41.2	1	6	248	0.00	29.688 
09:50	55.6	55.6	55.6	58	41.1	1	7	248	0.00	29.688 
09:55	55.9	55.9	55.9	58	41.3	1	4	248	0.00	29.688 
10:00	56.3	56.3	56.3	58	41.7	1	4	248	0.00	29.674 
10:05	56.6	56.6	56.6	57	41.5	1	4	270	0.00	29.674 
10:10	57.0	57.0	57.0	57	41.9	1	6	270	0.00	29.674 
10:15	57.3	57.3	57.3	57	42.2	2	7	248	0.00	29.668 
10:20	57.6	57.6	57.6	57	42.5	1	4	248	0.00	29.668 
10:25	58.0	58.0	58.0	57	42.9	2	6	225	0.00	29.668 
10:30	58.4	58.4	58.4	57	43.2	1	6	248	0.00	29.667 
10:35	58.6	58.6	58.6	57	43.4	1	6	248	0.00	29.667 
10:40	58.7	58.7	58.7	56	43.0	2	9	270	0.00	29.667 
10:45	58.9	58.9	58.9	56	43.2	2	5	248	0.00	29.669 
10:50	59.0	59.0	59.0	57	43.8	2	4	248	0.00	29.669 
10:55	58.9	58.9	58.9	57	43.7	2	7	248	0.00	29.669 
11:00	58.9	58.9	58.9	58	44.1	1	5	270	0.00	29.655 
11:05	59.2	59.2	59.2	57	44.0	2	9	270	0.00	29.655 
11:10	59.6	59.6	59.6	58	44.8	1	4	248	0.00	29.655 
11:15	59.9	59.9	59.9	57	44.6	2	7	248	0.00	29.661 
11:20	59.9	59.9	59.9	57	44.6	1	5	248	0.00	29.661 
11:25	60.1	60.1	60.1	58	45.3	1	7	248	0.00	29.661 
11:30	60.2	60.2	60.2	57	44.9	3	7	248	0.00	29.669 
11:35	60.1	60.1	60.1	58	45.3	3	10	248	0.00	29.669 
11:40	59.9	59.9	59.9	58	45.1	1	5	248	0.00	29.669 
11:45	59.9	59.9	59.9	58	45.1	2	7	248	0.00	29.674 
11:50	59.8	59.8	59.8	59	45.4	2	7	248	0.00	29.674 
11:55	59.8	59.8	59.8	59	45.4	3	9	248	0.00	29.674 
12:00	60.1	60.1	60.1	59	45.7	2	6	248	0.00	29.669 
12:05	60.1	60.1	60.1	58	45.3	3	10	248	0.00	29.669 
12:10	60.1	60.1	60.1	59	45.7	2	4	248	0.00	29.669 
12:15	60.1	60.1	60.1	59	45.7	2	7	270	0.00	29.668 
12:20	60.1	60.1	60.1	60	46.2	2	9	248	0.00	29.668 
12:25	59.8	59.8	59.8	59	45.4	3	11	248	0.00	29.668 
12:30	59.6	59.6	59.6	60	45.7	2	6	248	0.00	29.669 
12:35	59.5	59.5	59.5	60	45.6	2	10	248	0.00	29.669 
12:40	59.2	59.2	59.2	62	46.2	2	5	248	0.00	29.669 
12:45	59.0	59.0	59.0	62	46.0	2	7	248	0.00	29.671 
12:50	58.9	58.9	58.9	62	45.9	1	5	248	0.00	29.671 
12:55	58.7	58.7	58.7	62	45.7	1	4	248	0.00	29.671 
13:00	58.7	58.7	58.7	63	46.1	2	6	248	0.00	29.669 
13:05	58.6	58.6	58.6	63	46.0	3	9	248	0.00	29.669 
13:10	58.4	58.4	58.4	64	46.3	2	6	248	0.00	29.669 
13:15	58.3	58.3	58.3	64	46.2	2	5	248	0.00	29.666 
13:20	58.3	58.3	58.3	64	46.2	1	6	248	0.00	29.666 
13:25	58.1	58.1	58.1	65	46.4	1	4	248	0.00	29.666 
13:30	58.0	58.0	58.0	65	46.3	1	4	248	0.00	29.669 
13:35	57.8	57.8	57.8	66	46.5	1	3	248	0.00	29.669 
13:40	57.5	57.5	57.5	66	46.2	1	5	248	0.00	29.669 
13:45	57.3	57.3	57.3	68	46.8	2	5	248	0.00	29.674 
13:50	57.0	57.0	57.0	70	47.3	0	2	248	0.00	29.674 
13:55	56.6	56.6	56.6	71	47.3	2	6	248	0.00	29.674 
14:00	56.3	56.3	56.3	72	47.4	2	5	248	0.00	29.677 
14:05	56.2	56.2	56.2	73	47.7	1	5	248	0.00	29.677 
14:10	56.0	56.0	56.0	73	47.5	2	6	248	0.00	29.677 
14:15	55.7	55.7	55.7	75	47.9	3	7	248	0.00	29.684 
14:20	53.9	53.9	53.9	80	47.9	5	7	270	0.00	29.684 
14:25	52.0	52.0	52.0	82	46.7	4	8	270	0.00	29.684 
14:30	50.7	50.7	50.7	84	46.0	4	7	270	0.00	29.709 
14:35	49.9	49.9	49.9	87	46.2	3	10	270	0.01	29.709 
14:40	49.6	49.6	49.6	88	46.2	2	5	270	0.00	29.709 
14:45	49.4	49.4	49.4	89	46.3	2	5	270	0.00	29.718 
14:50	49.1	49.1	49.1	89	46.0	1	4	248	0.00	29.718 
14:55	48.9	48.9	48.9	90	46.1	0	2	248	0.00	29.718 
15:00	48.8	48.8	48.8	90	46.0	2	5	270	0.01	29.724 
15:05	47.9	47.9	47.9	90	45.1	3	7	270	0.00	29.724 
15:10	47.1	47.1	47.1	90	44.3	3	7	248	0.00	29.724 
15:15	46.7	46.7	46.7	90	43.9	3	7	270	0.00	29.740 
15:20	46.4	46.4	46.4	91	43.9	1	4	248	0.00	29.740 
15:25	46.2	46.2	46.2	91	43.7	2	5	248	0.00	29.740 
15:30	45.8	45.8	45.8	91	43.3	2	6	248	0.00	29.753 
15:35	45.5	45.5	45.5	91	43.0	2	6	248	0.00	29.753 
15:40	45.2	45.2	45.2	91	42.7	2	5	248	0.01	29.753 
15:45	45.1	45.1	45.1	91	42.6	2	5	248	0.00	29.759 
15:50	44.9	44.9	44.9	90	42.1	3	6	270	0.00	29.759 
15:55	44.6	44.6	44.6	90	41.9	3	11	270	0.00	29.759 
16:00	44.5	44.5	44.5	89	41.5	1	4	248	0.00	29.773 
16:05	44.2	44.2	44.2	89	41.2	2	7	248	0.00	29.773 
16:10	44.1	44.1	44.1	89	41.1	1	4	248	0.00	29.773 
16:15	43.8	43.8	43.8	88	40.5	2	7	248	0.00	29.779 
16:20	43.5	43.5	43.5	88	40.2	1	4	270	0.00	29.779 
16:25	43.2	43.2	43.2	88	39.9	2	6	248	0.00	29.779 
16:30	42.9	42.9	42.9	88	39.6	2	6	248	0.00	29.791 
16:35	42.8	42.8	42.8	89	39.8	1	5	270	0.00	29.791 
16:40	42.6	42.6	42.6	89	39.6	2	6	248	0.00	29.791 
16:45	42.2	42.2	42.2	89	39.2	2	6	248	0.01	29.800 
16:50	41.8	41.8	41.8	89	38.8	3	7	270	0.00	29.800 
16:55	41.5	41.5	41.5	89	38.5	3	7	270	0.00	29.800 
17:00	41.2	41.2	41.2	89	38.2	3	7	270	0.00	29.810 
17:05	41.2	41.2	41.2	89	38.2	3	6	270	0.00	29.810 
17:10	41.1	41.1	41.1	89	38.1	3	9	248	0.00	29.810 
17:15	41.1	38.6	41.1	89	38.1	4	10	270	0.00	29.818 
17:20	40.9	38.4	40.9	89	37.9	4	10	270	0.00	29.818 
17:25	40.9	40.9	40.9	89	37.9	3	6	270	0.00	29.818 
17:30	40.9	40.9	40.9	89	37.9	3	5	270	0.00	29.826 
17:35	40.9	40.9	40.9	89	37.9	3	9	270	0.00	29.826 
17:40	40.9	40.9	40.9	88	37.6	3	9	270	0.00	29.826 
17:45	40.6	40.6	40.6	88	37.3	3	6	270	0.00	29.832 
17:50	40.6	40.6	40.6	88	37.3	3	7	270	0.00	29.832 
17:55	40.5	37.9	40.5	88	37.2	4	10	270	0.00	29.832 
18:00	40.5	40.5	40.5	88	37.2	3	6	270	0.00	29.842 
18:05	40.3	40.3	40.3	88	37.0	2	7	270	0.00	29.842 
18:10	40.2	40.2	40.2	88	36.9	3	7	270	0.00	29.842 
18:15	40.1	37.4	40.1	87	36.5	4	7	270	0.00	29.851 
18:20	39.8	37.1	39.8	87	36.3	4	9	270	0.00	29.851 
18:25	39.6	36.9	39.6	86	35.8	4	7	270	0.00	29.851 
18:30	39.5	39.5	39.5	87	36.0	3	9	270	0.00	29.858 
18:35	39.5	39.5	39.5	87	36.0	3	6	270	0.00	29.858 
18:40	39.5	39.5	39.5	87	36.0	3	6	270	0.00	29.858 
18:45	39.5	39.5	39.5	87	36.0	2	5	270	0.00	29.873 
18:50	39.3	39.3	39.3	88	36.0	3	6	270	0.00	29.873 
18:55	39.3	39.3	39.3	88	36.0	3	7	270	0.00	29.873 
19:00	39.2	39.2	39.2	88	35.9	2	5	270	0.00	29.882 
19:05	39.2	39.2	39.2	88	35.9	2	7	292	0.00	29.882 
19:10	39.1	39.1	39.1	88	35.9	2	5	270	0.00	29.882 
19:15	39.1	39.1	39.1	89	36.1	2	5	270	0.00	29.887 
19:20	39.1	39.1	39.1	89	36.1	2	5	270	0.00	29.887 
19:25	38.9	38.9	38.9	89	35.9	2	4	270	0.00	29.887 
19:30	38.9	38.9	38.9	89	35.9	2	6	292	0.00	29.892 
19:35	38.9	38.9	38.9	90	36.2	1	4	292	0.00	29.892 
19:40	38.8	38.8	38.8	90	36.1	2	5	248	0.00	29.892 
19:45	38.8	38.8	38.8	90	36.1	2	5	248	0.00	29.895 
19:50	38.8	38.8	38.8	90	36.1	2	4	248	0.00	29.895 
19:55	38.6	38.6	38.6	90	35.9	2	5	248	0.00	29.895 
20:00	38.6	38.6	38.6	90	35.9	2	4	270	0.00	29.893 
20:05	38.6	38.6	38.6	90	35.9	2	7	292	0.00	29.893 
20:10	38.5	38.5	38.5	90	35.8	2	4	292	0.00	29.893 
20:15	38.5	38.5	38.5	90	35.8	2	5	292	0.00	29.891 
20:20	38.5	38.5	38.5	90	35.8	1	4	248	0.00	29.891 
20:25	38.5	38.5	38.5	90	35.8	1	3	248	0.00	29.891 
20:30	38.6	38.6	38.6	90	35.9	0	3	248	0.00	29.897 
20:35	38.6	38.6	38.6	90	35.9	1	3	248	0.00	29.897 
20:40	38.6	38.6	38.6	89	35.6	2	4	248	0.00	29.897 
20:45	38.6	38.6	38.6	89	35.6	1	5	248	0.00	29.903 
20:50	38.6	38.6	38.6	89	35.6	2	3	248	0.00	29.903 
20:55	38.6	38.6	38.6	88	35.4	2	4	248	0.00	29.903 
21:00	38.6	38.6	38.6	88	35.4	2	5	248	0.00	29.905 
21:05	38.6	38.6	38.6	88	35.4	2	4	248	0.00	29.905 
21:10	38.6	38.6	38.6	88	35.4	1	4	248	0.00	29.905 
21:15	38.6	38.6	38.6	88	35.4	1	3	248	0.00	29.913 
21:20	38.5	38.5	38.5	87	35.0	1	4	248	0.00	29.913 
21:25	38.5	38.5	38.5	87	35.0	1	4	248	0.00	29.913 
21:30	38.5	38.5	38.5	87	35.0	1	6	248	0.00	29.918 
21:35	38.5	38.5	38.5	88	35.3	1	4	248	0.00	29.918 
21:40	38.3	38.3	38.3	88	35.1	2	4	248	0.00	29.918 
21:45	38.3	38.3	38.3	88	35.1	1	4	248	0.00	29.928 
21:50	38.3	38.3	38.3	88	35.1	1	3	248	0.00	29.928 
21:55	38.3	38.3	38.3	88	35.1	1	3	248	0.00	29.928 
22:00	38.2	38.2	38.2	88	35.0	1	4	248	0.00	29.932 
22:05	38.0	38.0	38.0	88	34.8	2	5	270	0.00	29.932 
22:10	38.0	38.0	38.0	88	34.8	2	4	270	0.00	29.932 
22:15	37.9	37.9	37.9	88	34.7	3	5	270	0.00	29.939 
22:20	37.8	37.8	37.8	88	34.6	3	5	292	0.00	29.939 
22:25	37.8	37.8	37.8	88	34.6	3	6	292	0.00	29.939 
22:30	37.8	37.8	37.8	87	34.3	3	5	292	0.00	29.946 
22:35	37.6	37.6	37.6	86	33.8	3	9	292	0.00	29.946 
22:40	37.2	34.1	37.2	84	32.8	4	8	315	0.00	29.946 
22:45	36.8	36.8	36.8	85	32.7	3	6	292	0.00	29.952 
22:50	36.6	36.6	36.6	85	32.5	3	6	292	0.00	29.952 
22:55	36.5	36.5	36.5	84	32.1	3	6	270	0.00	29.952 
23:00	36.6	33.4	36.6	84	32.2	4	6	270	0.00	29.962 
23:05	36.6	33.4	36.6	83	31.9	4	10	292	0.00	29.962 
23:10	36.6	33.4	36.6	83	31.9	4	9	270	0.00	29.962 
23:15	36.5	32.4	36.5	83	31.8	5	10	338	0.00	29.969 
23:20	36.5	36.5	36.5	83	31.8	2	7	292	0.00	29.969 
23:25	36.3	36.3	36.3	83	31.6	3	6	292	0.00	29.969 
23:30	36.2	32.9	36.2	83	31.5	4	12	338	0.00	29.973 
23:35	36.0	36.0	36.0	83	31.3	3	7	292	0.00	29.973 
23:40	36.0	36.0	36.0	83	31.3	3	6	338	0.00	29.973 
23:45	35.9	35.9	35.9	83	31.2	3	9	315	0.00	29.980 
23:50	35.9	35.9	35.9	83	31.2	3	7	270	0.00	29.980 
23:55	35.9	35.9	35.9	83	31.2	2	5	315	0.00	29.980 

CoCoRaHS
IN-AL-39
A2 Web Hosting
Creative Commons License
GoDaddy
search engine by freefind advanced

loaded 2018-11-18 12:20:02 • last modified 2010-11-18 10:43:29
Privacy PolicyDisclaimer
• wx.awcolley.com is powered by PmWiki v.2002016 •
• all content (unless otherwise noted) © 2018 A W Colley